< < Back
Terminal Aerodrome Forecast


Current Version              Previous Versions:   1  2  3  4  5  6  7  8  9  

Terminal Aerodrome Forecast

623
FTUS42 KILM 101123
TAFFLO
TAF
KFLO 101123Z 1012/1112 25008KT P6SM SKC
     FM101400 27015G24KT P6SM SKC
     FM110000 28008KT P6SM SKC=

Latest METAR

199
SAUS70 KWBC 110800 RRI
MTRFLO
METAR KFLO 110753Z AUTO 29004KT 10SM CLR M02/M11 A3014 RMK AO2 SLP205
T10221106


USA.gov is the U.S. government's official web portal to all federal, state and local government web resources and services.